Time;durP1;ratioP1;P1;durP2;ratioP2;P2;SDS_P1;SDS_P2;PMS_P1;PMS_P2;Temp;Humidity;BMP_temperature;BMP_pressure;BME280_temperature;BME280_humidity;BME280_pressure;Samples;Min_cycle;Max_cycle;Signal;HPM_P1;HPM_P2
2021/01/21 00:00:14;;;;;;;16.00;9.68;;;;;;;4.76;76.91;98745.50;4880931;29;20059;-81
2021/01/21 00:02:40;;;;;;;16.95;10.38;;;;;;;4.83;77.02;98751.31;4888945;29;20062;-81
2021/01/21 00:05:07;;;;;;;17.23;10.15;;;;;;;4.83;76.79;98738.19;4890170;29;20079;-80
2021/01/21 00:07:35;;;;;;;18.02;10.90;;;;;;;4.84;76.11;98743.38;4896507;29;20063;-81
2021/01/21 00:10:02;;;;;;;18.08;10.52;;;;;;;4.79;76.56;98741.88;4897982;29;20067;-81
2021/01/21 00:12:28;;;;;;;19.85;10.52;;;;;;;4.74;76.47;98738.63;4896812;29;20071;-80
2021/01/21 00:14:55;;;;;;;16.40;10.07;;;;;;;4.74;76.76;98738.63;4887853;29;20045;-81
2021/01/21 00:17:22;;;;;;;16.25;9.98;;;;;;;4.69;77.32;98724.94;4889495;29;20124;-80
2021/01/21 00:19:48;;;;;;;16.65;9.98;;;;;;;4.70;77.38;98727.47;4890027;29;20089;-80
2021/01/21 00:22:15;;;;;;;18.23;9.60;;;;;;;4.68;77.25;98731.94;4884770;29;20049;-81
2021/01/21 00:24:41;;;;;;;14.68;9.40;;;;;;;4.67;77.02;98724.16;4884634;29;20048;-81
2021/01/21 00:27:07;;;;;;;18.35;10.25;;;;;;;4.65;77.02;98721.59;4889443;29;20117;-81
2021/01/21 00:29:36;;;;;;;17.85;9.77;;;;;;;4.60;77.26;98718.34;4881817;29;20057;-81
2021/01/21 00:32:02;;;;;;;14.20;9.23;;;;;;;4.58;77.11;98718.41;4889668;29;20468;-81
2021/01/21 00:34:29;;;;;;;16.67;9.45;;;;;;;4.61;77.80;98721.81;4883144;29;20126;-81
2021/01/21 00:36:55;;;;;;;16.10;9.18;;;;;;;4.67;77.23;98719.75;4884362;29;20057;-82
2021/01/21 00:39:22;;;;;;;13.98;8.23;;;;;;;4.66;76.71;98711.97;4879954;29;20080;-81
2021/01/21 00:41:48;;;;;;;17.15;8.65;;;;;;;4.69;77.24;98709.19;4880594;29;20267;-81
2021/01/21 00:44:16;;;;;;;15.00;9.00;;;;;;;4.71;76.62;98708.19;4889512;29;20531;-81
2021/01/21 00:46:42;;;;;;;15.85;9.10;;;;;;;4.75;76.83;98701.84;4894339;29;20064;-80
2021/01/21 00:49:09;;;;;;;15.02;8.90;;;;;;;4.78;76.68;98691.22;4900729;29;20117;-81
2021/01/21 00:51:37;;;;;;;14.02;7.97;;;;;;;4.77;76.79;98686.03;4892072;29;20549;-81
2021/01/21 00:54:03;;;;;;;15.50;8.98;;;;;;;4.80;76.55;98688.53;4872574;29;20063;-82
2021/01/21 00:56:30;;;;;;;15.35;8.60;;;;;;;4.82;76.27;98686.66;4875473;29;20325;-82
2021/01/21 00:58:56;;;;;;;15.32;8.35;;;;;;;4.85;76.54;98682.13;4901398;29;20057;-82
2021/01/21 01:01:22;;;;;;;12.35;7.93;;;;;;;4.88;76.46;98681.09;4888734;29;20049;-82
2021/01/21 01:03:49;;;;;;;14.35;8.02;;;;;;;4.89;76.48;98677.53;4882491;29;20045;-83
2021/01/21 01:06:15;;;;;;;12.75;8.10;;;;;;;4.96;76.20;98673.69;4881032;29;20108;-82
2021/01/21 01:08:42;;;;;;;13.27;8.32;;;;;;;4.97;75.80;98683.25;4870884;29;20206;-82
2021/01/21 01:11:10;;;;;;;13.77;7.72;;;;;;;4.99;75.60;98673.53;4902255;29;20060;-81
2021/01/21 01:13:36;;;;;;;11.15;7.63;;;;;;;5.03;75.96;98682.13;4888218;29;20053;-81
2021/01/21 01:16:03;;;;;;;13.45;7.10;;;;;;;5.02;75.88;98673.41;4874293;29;20081;-82
2021/01/21 01:18:29;;;;;;;10.27;7.03;;;;;;;5.10;75.09;98678.22;4890602;29;20063;-82
2021/01/21 01:20:56;;;;;;;12.45;7.28;;;;;;;5.14;74.13;98678.00;4899029;29;20061;-82
2021/01/21 01:23:22;;;;;;;13.75;7.65;;;;;;;5.21;73.70;98679.34;4867134;29;20052;-82
2021/01/21 01:25:48;;;;;;;12.27;7.22;;;;;;;5.24;73.40;98678.34;4885586;29;20053;-82
2021/01/21 01:28:15;;;;;;;12.88;6.85;;;;;;;5.24;73.20;98668.69;4887816;29;20061;-82
2021/01/21 01:30:41;;;;;;;10.77;6.38;;;;;;;5.25;72.68;98664.31;4871855;29;20459;-82
2021/01/21 01:33:08;;;;;;;11.32;6.57;;;;;;;5.28;72.59;98661.53;4859619;29;20053;-81
2021/01/21 01:35:36;;;;;;;12.15;7.15;;;;;;;5.20;72.67;98656.66;4871591;29;20049;-81
2021/01/21 01:38:02;;;;;;;11.70;7.18;;;;;;;5.20;72.86;98651.41;4887400;29;20037;-81
2021/01/21 01:40:28;;;;;;;13.15;6.80;;;;;;;5.19;72.91;98649.75;4902515;29;20045;-82
2021/01/21 01:42:55;;;;;;;12.90;7.03;;;;;;;5.17;72.96;98641.09;4900120;29;20074;-82
2021/01/21 01:45:22;;;;;;;10.85;7.00;;;;;;;5.19;73.14;98631.38;4900676;29;20068;-82
2021/01/21 01:47:49;;;;;;;9.05;6.22;;;;;;;5.24;72.97;98633.75;4898027;29;20398;-81
2021/01/21 01:50:16;;;;;;;11.48;6.20;;;;;;;5.29;72.80;98634.34;4885588;29;20137;-80
2021/01/21 01:52:44;;;;;;;11.60;5.90;;;;;;;5.31;72.48;98621.16;4873283;29;20051;-81
2021/01/21 01:55:17;;;;;;;10.10;6.07;;;;;;;5.37;72.13;98623.41;4898997;29;20289;-81
2021/01/21 01:57:50;;;;;;;9.35;5.75;;;;;;;5.45;70.94;98629.13;4899252;29;20062;-81
2021/01/21 02:00:17;;;;;;;10.88;6.00;;;;;;;5.47;70.57;98612.38;4900582;29;20043;-81
2021/01/21 02:02:50;;;;;;;9.30;5.50;;;;;;;5.46;70.56;98597.53;4892829;29;20053;-80
2021/01/21 02:05:18;;;;;;;9.98;6.15;;;;;;;5.50;70.72;98593.81;4868555;29;20053;-80
2021/01/21 02:07:45;;;;;;;9.77;5.75;;;;;;;5.51;70.51;98598.13;4861724;29;20056;-82
2021/01/21 02:10:17;;;;;;;9.55;5.80;;;;;;;5.48;71.13;98592.22;4874058;29;20053;-80
2021/01/21 02:12:53;;;;;;;8.93;5.35;;;;;;;5.49;70.80;98586.03;4865882;29;20126;-80
2021/01/21 02:15:28;;;;;;;9.07;5.47;;;;;;;5.52;71.10;98585.84;4879170;29;20049;-80
2021/01/21 02:18:06;;;;;;;8.10;5.30;;;;;;;5.55;70.73;98577.78;4883251;29;20059;-80
2021/01/21 02:21:07;;;;;;;11.27;6.07;;;;;;;5.56;70.68;98563.75;4880234;29;20151;-81
2021/01/21 02:23:55;;;;;;;9.75;5.93;;;;;;;5.61;70.62;98569.59;4875404;29;20076;-83
2021/01/21 02:26:54;;;;;;;8.10;5.07;;;;;;;5.63;70.45;98560.69;4863970;29;20060;-80
2021/01/21 02:29:33;;;;;;;11.70;5.28;;;;;;;5.70;70.29;98548.06;4876547;29;20093;-82
2021/01/21 02:32:06;;;;;;;7.13;4.50;;;;;;;5.73;71.03;98550.50;4898719;29;20171;-80
2021/01/21 02:34:36;;;;;;;8.25;3.22;;;;;;;5.82;69.29;98549.16;4901105;29;20033;-80
2021/01/21 02:37:04;;;;;;;4.93;3.10;;;;;;;6.05;66.37;98534.72;4898178;29;20152;-80
2021/01/21 02:39:33;;;;;;;4.10;2.33;;;;;;;6.34;64.26;98525.97;4893396;29;20201;-80
2021/01/21 02:42:06;;;;;;;4.40;1.60;;;;;;;6.76;61.35;98532.22;4893248;29;20069;-80
2021/01/21 02:44:35;;;;;;;3.17;1.42;;;;;;;7.05;59.63;98520.75;4896110;29;20057;-81
2021/01/21 02:47:03;;;;;;;4.43;1.77;;;;;;;7.36;57.22;98506.50;4894545;29;20049;-81
2021/01/21 02:49:29;;;;;;;2.13;1.33;;;;;;;7.76;55.68;98494.22;4893595;29;20090;-80
2021/01/21 02:52:21;;;;;;;3.35;1.50;;;;;;;8.16;54.28;98488.94;4890798;29;20061;-80
2021/01/21 02:55:13;;;;;;;2.28;1.25;;;;;;;8.42;52.77;98483.59;4894276;29;20471;-79
2021/01/21 02:58:03;;;;;;;2.85;1.50;;;;;;;8.57;52.43;98496.69;4886580;29;20529;-81
2021/01/21 03:00:32;;;;;;;2.80;1.58;;;;;;;8.67;51.21;98482.75;4886994;29;20050;-80
2021/01/21 03:03:02;;;;;;;4.32;1.45;;;;;;;8.79;50.81;98483.72;4871839;29;20052;-81
2021/01/21 03:05:30;;;;;;;3.45;1.50;;;;;;;8.86;50.62;98471.75;4875460;29;20064;-81
2021/01/21 03:08:00;;;;;;;;;;;;;;;8.90;50.25;98473.22;4876332;29;20066;-80
2021/01/21 03:10:26;;;;;;;1.88;1.38;;;;;;;8.92;50.39;98489.81;4894507;29;19983;-80
2021/01/21 03:12:55;;;;;;;2.58;1.17;;;;;;;9.01;49.60;98483.88;4894044;29;20109;-80
2021/01/21 03:15:22;;;;;;;3.00;1.73;;;;;;;9.03;49.94;98489.88;4881047;29;20688;-81
2021/01/21 03:17:49;;;;;;;2.95;1.50;;;;;;;9.09;49.50;98499.19;4884802;29;20076;-81
2021/01/21 03:20:16;;;;;;;7.20;1.35;;;;;;;9.03;49.27;98489.03;4885182;29;20132;-81
2021/01/21 03:22:43;;;;;;;3.17;1.40;;;;;;;9.06;49.28;98486.19;4888358;29;20131;-81
2021/01/21 03:25:12;;;;;;;1.65;1.23;;;;;;;9.10;49.31;98485.03;4887895;29;20055;-79
2021/01/21 03:27:39;;;;;;;2.42;1.30;;;;;;;9.13;48.81;98490.06;4886623;29;20124;-80
2021/01/21 03:30:08;;;;;;;3.78;1.20;;;;;;;9.10;48.93;98485.03;4888562;29;20056;-81
2021/01/21 03:32:35;;;;;;;2.78;1.38;;;;;;;9.05;49.22;98484.50;4886615;29;20042;-81
2021/01/21 03:35:05;;;;;;;2.58;1.50;;;;;;;9.00;49.41;98481.34;4865641;29;20127;-81
2021/01/21 03:37:32;;;;;;;3.08;1.50;;;;;;;8.99;49.29;98477.00;4867288;29;20049;-81
2021/01/21 03:39:59;;;;;;;2.30;1.27;;;;;;;8.94;49.39;98464.16;4890037;29;20108;-81
2021/01/21 03:42:26;;;;;;;5.40;1.80;;;;;;;8.95;49.29;98459.72;4869916;29;20393;-79
2021/01/21 03:44:53;;;;;;;3.95;1.48;;;;;;;8.93;49.24;98454.53;4885635;29;20055;-80
2021/01/21 03:47:19;;;;;;;3.10;1.58;;;;;;;8.89;48.88;98445.16;4884993;29;20056;-79
2021/01/21 03:49:46;;;;;;;3.33;1.60;;;;;;;8.90;49.00;98438.91;4889822;29;20059;-80
2021/01/21 03:52:12;;;;;;;2.10;1.50;;;;;;;8.86;48.79;98449.78;4893183;29;20059;-83
2021/01/21 03:54:39;;;;;;;2.03;1.20;;;;;;;8.89;48.16;98439.03;4886904;29;20053;-83
2021/01/21 03:57:05;;;;;;;3.38;1.50;;;;;;;8.93;48.44;98435.22;4882774;29;20127;-83
2021/01/21 03:59:31;;;;;;;2.47;1.40;;;;;;;9.00;47.84;98436.47;4894056;29;20057;-81
2021/01/21 04:01:58;;;;;;;3.22;1.40;;;;;;;8.98;48.41;98438.34;4891950;29;20160;-82
2021/01/21 04:04:25;;;;;;;2.05;1.50;;;;;;;8.92;48.99;98439.66;4880830;29;20049;-82
2021/01/21 04:06:51;;;;;;;2.38;1.20;;;;;;;8.99;48.63;98447.97;4895240;29;20066;-82
2021/01/21 04:09:17;;;;;;;3.90;1.40;;;;;;;9.01;48.30;98451.34;4873458;29;20041;-79
2021/01/21 04:11:44;;;;;;;2.80;1.60;;;;;;;9.09;48.15;98441.09;4898317;29;20049;-79
2021/01/21 04:14:11;;;;;;;3.47;1.73;;;;;;;9.13;48.42;98447.81;4892048;29;20095;-80
2021/01/21 04:16:38;;;;;;;3.90;1.75;;;;;;;9.15;48.35;98440.63;4891791;29;20045;-79
2021/01/21 04:19:05;;;;;;;3.92;1.65;;;;;;;9.21;47.96;98449.91;4893394;29;20061;-80
2021/01/21 04:21:31;;;;;;;4.72;1.45;;;;;;;9.25;48.22;98462.81;4898632;29;20041;-82
2021/01/21 04:24:00;;;;;;;4.55;1.70;;;;;;;9.34;48.74;98450.72;4909262;29;20116;-81
2021/01/21 04:26:27;;;;;;;2.38;1.13;;;;;;;9.42;48.46;98451.00;4897087;29;20063;-82
2021/01/21 04:28:54;;;;;;;3.72;1.45;;;;;;;9.38;48.50;98439.81;4886049;29;20479;-81
2021/01/21 04:31:20;;;;;;;2.08;1.27;;;;;;;9.37;48.66;98440.78;4878112;29;20060;-81
2021/01/21 04:33:47;;;;;;;2.05;1.58;;;;;;;9.38;48.73;98450.38;4868970;29;20054;-81
2021/01/21 04:36:16;;;;;;;1.95;1.50;;;;;;;9.41;48.46;98442.25;4884996;29;20068;-81
2021/01/21 04:38:42;;;;;;;2.85;1.27;;;;;;;9.45;49.41;98438.41;4885425;29;20139;-82
2021/01/21 04:41:09;;;;;;;1.73;1.10;;;;;;;9.46;50.16;98434.81;4885128;29;20044;-82
2021/01/21 04:43:38;;;;;;;3.10;1.58;;;;;;;9.49;49.90;98450.44;4867732;29;20063;-81
2021/01/21 04:46:08;;;;;;;2.50;1.40;;;;;;;9.50;50.14;98440.72;4880773;29;20136;-81
2021/01/21 04:48:38;;;;;;;1.85;1.30;;;;;;;9.50;50.07;98449.50;4882018;29;20056;-81
2021/01/21 04:51:05;;;;;;;3.10;1.42;;;;;;;9.50;49.79;98449.50;4865699;29;20052;-81
2021/01/21 04:53:36;;;;;;;3.47;1.40;;;;;;;9.48;49.92;98442.63;4879672;29;20056;-82
2021/01/21 04:56:04;;;;;;;3.92;1.77;;;;;;;9.48;50.40;98443.47;4871322;29;20055;-81
2021/01/21 04:58:32;;;;;;;2.97;1.40;;;;;;;9.53;49.70;98442.28;4879499;29;20553;-81
2021/01/21 05:01:00;;;;;;;2.00;1.17;;;;;;;9.52;49.66;98432.69;4881796;29;20114;-81
2021/01/21 05:03:28;;;;;;;1.55;1.40;;;;;;;9.57;50.23;98441.13;4878351;29;20122;-81
2021/01/21 05:05:56;;;;;;;3.38;1.40;;;;;;;9.56;50.07;98442.91;4872175;29;20420;-81
2021/01/21 05:08:23;;;;;;;2.75;1.48;;;;;;;9.57;50.21;98430.56;4879541;29;20066;-81
2021/01/21 05:10:50;;;;;;;2.65;1.38;;;;;;;9.60;50.51;98436.44;4880547;29;20056;-80
2021/01/21 05:13:17;;;;;;;3.60;1.50;;;;;;;9.60;50.12;98425.84;4871469;29;20057;-82
2021/01/21 05:15:44;;;;;;;2.22;1.50;;;;;;;9.61;49.95;98437.28;4879287;29;20117;-82
2021/01/21 05:18:12;;;;;;;6.57;1.80;;;;;;;9.65;51.50;98438.75;4878808;29;20083;-82
2021/01/21 05:20:39;;;;;;;3.55;1.50;;;;;;;9.67;51.33;98423.63;4879202;29;20423;-82
2021/01/21 05:23:06;;;;;;;2.95;1.40;;;;;;;9.65;50.74;98436.09;4888729;29;20045;-82
2021/01/21 05:25:35;;;;;;;2.78;1.25;;;;;;;9.55;50.68;98427.19;4874920;29;20093;-80
2021/01/21 05:28:06;;;;;;;1.58;1.40;;;;;;;9.53;50.82;98434.38;4882569;29;20064;-80
2021/01/21 05:30:34;;;;;;;2.47;1.50;;;;;;;9.45;50.96;98432.28;4885203;29;20037;-80
2021/01/21 05:33:01;;;;;;;3.95;1.60;;;;;;;9.43;50.95;98428.94;4885192;29;20055;-79
2021/01/21 05:35:28;;;;;;;3.38;1.70;;;;;;;9.38;51.22;98431.06;4881029;29;20061;-80
2021/01/21 05:37:58;;;;;;;3.92;1.38;;;;;;;9.32;51.55;98434.97;4885646;29;20106;-80
2021/01/21 05:40:30;;;;;;;2.08;1.58;;;;;;;9.31;51.65;98438.56;4889904;29;20468;-82
2021/01/21 05:42:58;;;;;;;2.05;1.63;;;;;;;9.30;51.62;98428.13;4877140;29;20045;-82
2021/01/21 05:45:25;;;;;;;3.38;1.70;;;;;;;9.29;51.74;98437.00;4885067;29;20136;-82
2021/01/21 05:47:58;;;;;;;2.85;1.83;;;;;;;9.29;51.67;98437.00;4887886;29;20052;-82
2021/01/21 05:50:27;;;;;;;4.05;1.70;;;;;;;9.27;51.55;98433.66;4868400;29;20060;-80
2021/01/21 05:52:56;;;;;;;3.63;1.85;;;;;;;9.19;51.71;98435.97;4863678;29;20060;-81
2021/01/21 05:55:26;;;;;;;2.63;1.45;;;;;;;9.13;52.19;98432.81;4874603;29;20060;-82
2021/01/21 05:57:53;;;;;;;2.53;1.77;;;;;;;9.07;52.10;98428.00;4888556;29;20053;-81
2021/01/21 06:00:24;;;;;;;3.00;1.70;;;;;;;9.05;52.35;98423.78;4882166;29;20053;-80
2021/01/21 06:02:51;;;;;;;;;;;;;;;9.06;52.34;98442.16;4882194;29;20084;-81
2021/01/21 06:05:22;;;;;;;3.30;1.58;;;;;;;9.03;52.49;98437.09;4860270;29;20018;-82
2021/01/21 06:07:49;;;;;;;;;;;;;;;9.07;52.63;98429.78;4876453;29;20056;-81
2021/01/21 06:10:20;;;;;;;2.90;1.83;;;;;;;9.03;52.76;98426.53;4867408;29;19923;-80
2021/01/21 06:12:48;;;;;;;3.47;1.70;;;;;;;9.05;52.67;98429.91;4868924;29;20550;-81
2021/01/21 06:15:19;;;;;;;3.67;1.85;;;;;;;9.08;52.46;98428.84;4880882;29;20052;-80
2021/01/21 06:17:48;;;;;;;3.33;1.75;;;;;;;9.06;52.87;98421.03;4884822;29;20041;-81
2021/01/21 06:20:16;;;;;;;2.78;1.92;;;;;;;9.03;53.13;98425.69;4884841;29;20144;-79
2021/01/21 06:22:46;;;;;;;1.92;1.50;;;;;;;9.03;53.51;98423.03;4889565;29;20060;-80
2021/01/21 06:25:15;;;;;;;2.47;1.88;;;;;;;9.03;53.65;98423.03;4890480;29;20100;-79
2021/01/21 06:27:44;;;;;;;4.75;1.90;;;;;;;9.06;53.77;98431.59;4883618;29;20513;-81
2021/01/21 06:30:14;;;;;;;3.97;2.03;;;;;;;9.06;54.24;98420.19;4887163;29;20063;-79
2021/01/21 06:32:49;;;;;;;5.85;2.08;;;;;;;9.11;54.38;98432.13;4878625;29;20060;-80
2021/01/21 06:35:20;;;;;;;3.78;1.73;;;;;;;9.12;54.51;98427.69;4882191;29;20053;-81
2021/01/21 06:37:55;;;;;;;4.30;1.95;;;;;;;9.13;54.37;98429.34;4893710;29;20076;-81
2021/01/21 06:40:23;;;;;;;3.83;1.52;;;;;;;9.18;54.70;98424.56;4868373;29;20053;-79
2021/01/21 06:42:55;;;;;;;2.72;1.60;;;;;;;9.20;54.72;98427.94;4888810;29;20343;-82
2021/01/21 06:45:22;;;;;;;6.20;1.90;;;;;;;9.24;54.55;98429.44;4887920;29;20052;-80
2021/01/21 06:47:50;;;;;;;3.08;1.60;;;;;;;9.34;54.53;98434.88;4872440;29;20113;-81
2021/01/21 06:50:18;;;;;;;2.72;1.85;;;;;;;9.42;54.89;98437.81;4887365;29;20053;-80
2021/01/21 06:52:51;;;;;;;3.33;1.70;;;;;;;9.43;54.46;98439.50;4871982;29;20072;-79
2021/01/21 06:55:18;;;;;;;3.22;1.63;;;;;;;9.34;54.38;98424.31;4864920;29;20069;-80
2021/01/21 06:57:45;;;;;;;4.63;2.13;;;;;;;9.40;54.42;98429.16;4890563;29;20101;-81
2021/01/21 07:00:16;;;;;;;3.97;1.80;;;;;;;9.36;54.79;98423.25;4870622;29;20049;-79
2021/01/21 07:02:50;;;;;;;9.82;2.65;;;;;;;9.43;55.35;98437.69;4886036;29;20044;-80
2021/01/21 07:05:21;;;;;;;5.03;2.00;;;;;;;9.42;56.65;98427.25;4889516;29;20053;-80
2021/01/21 07:07:55;;;;;;;3.88;2.17;;;;;;;9.48;56.46;98437.34;4874560;29;20419;-80
2021/01/21 07:10:35;;;;;;;3.45;1.92;;;;;;;9.40;57.96;98435.28;4882712;29;20057;-79
2021/01/21 07:13:06;;;;;;;2.53;1.88;;;;;;;9.35;58.72;98431.28;4871076;29;20419;-80
2021/01/21 07:15:43;;;;;;;3.80;2.20;;;;;;;9.35;58.38;98439.19;4883648;29;20059;-80
2021/01/21 07:18:18;;;;;;;2.95;2.13;;;;;;;9.40;57.37;98426.50;4884063;29;20459;-81
2021/01/21 07:21:00;;;;;;;8.77;1.92;;;;;;;9.41;57.72;98442.25;4879865;29;20065;-80
2021/01/21 07:23:39;;;;;;;3.45;2.00;;;;;;;9.44;57.55;98442.00;4881899;29;20060;-80
2021/01/21 07:26:24;;;;;;;3.53;1.80;;;;;;;9.53;57.83;98437.00;4884209;29;20044;-80
2021/01/21 07:29:11;;;;;;;3.97;1.80;;;;;;;9.58;57.68;98442.81;4887460;29;20049;-81
2021/01/21 07:31:52;;;;;;;4.50;1.98;;;;;;;9.65;57.42;98449.31;4886679;29;20059;-81
2021/01/21 07:34:38;;;;;;;3.65;1.80;;;;;;;9.66;57.33;98453.63;4882964;29;20060;-80
2021/01/21 07:37:27;;;;;;;4.55;1.90;;;;;;;9.66;57.08;98451.00;4882279;29;20069;-80
2021/01/21 07:40:03;;;;;;;2.55;1.55;;;;;;;9.70;56.69;98441.88;4871707;29;20052;-80
2021/01/21 07:42:38;;;;;;;2.90;1.60;;;;;;;9.73;56.69;98447.81;4881428;29;20084;-79
2021/01/21 07:45:08;;;;;;;5.55;1.50;;;;;;;9.73;56.45;98433.75;4879181;29;20029;-80
2021/01/21 07:47:37;;;;;;;;;;;;;;;9.74;56.37;98443.34;4874394;29;20040;-81
2021/01/21 07:50:19;;;;;;;4.32;1.52;;;;;;;9.74;56.28;98436.28;4875884;29;19927;-80
2021/01/21 07:52:50;;;;;;;4.57;1.92;;;;;;;9.76;56.48;98431.69;4891243;29;20053;-83
2021/01/21 07:55:31;;;;;;;5.97;1.75;;;;;;;9.78;56.77;98440.34;4879629;29;20096;-82
2021/01/21 07:58:37;;;;;;;5.65;1.35;;;;;;;9.87;56.66;98440.63;4880111;29;20079;-83
2021/01/21 08:01:13;;;;;;;3.63;1.90;;;;;;;9.88;56.88;98444.97;4843417;29;20038;-80
2021/01/21 08:03:42;;;;;;;2.60;1.10;;;;;;;9.90;56.80;98451.81;4873775;29;20108;-81
2021/01/21 08:06:22;;;;;;;3.07;1.20;;;;;;;9.96;56.71;98454.00;4896621;29;20164;-82
2021/01/21 08:08:52;;;;;;;1.83;1.33;;;;;;;9.97;57.35;98450.41;4879447;29;20521;-81
2021/01/21 08:11:20;;;;;;;3.78;1.40;;;;;;;9.99;59.05;98456.41;4892161;29;20108;-83
2021/01/21 08:13:56;;;;;;;3.03;1.52;;;;;;;9.95;60.58;98454.94;4891105;29;20286;-85
2021/01/21 08:16:22;;;;;;;1.83;1.20;;;;;;;9.89;61.98;98442.22;4902972;29;20117;-88
2021/01/21 08:18:59;;;;;;;1.92;1.05;;;;;;;9.86;62.07;98460.94;4905699;29;20037;-84
2021/01/21 08:21:27;;;;;;;4.85;1.70;;;;;;;9.83;63.42;98456.72;4884965;29;20125;-86
2021/01/21 08:24:13;;;;;;;3.28;1.00;;;;;;;9.76;63.72;98447.53;4909464;29;20045;-85
2021/01/21 08:26:40;;;;;;;3.00;1.50;;;;;;;9.75;64.43;98450.34;4903313;29;20048;-84
2021/01/21 08:29:12;;;;;;;2.33;1.65;;;;;;;9.72;65.46;98453.19;4882654;29;20116;-86
2021/01/21 08:31:50;;;;;;;4.43;1.73;;;;;;;9.63;65.15;98461.78;4899743;29;20051;-84
2021/01/21 08:34:24;;;;;;;3.78;1.30;;;;;;;9.62;65.71;98460.09;4901913;29;20040;-86
2021/01/21 08:37:13;;;;;;;4.32;1.15;;;;;;;9.59;65.94;98455.06;4910770;29;20056;-86
2021/01/21 08:39:41;;;;;;;2.78;1.10;;;;;;;9.52;66.28;98459.94;4875901;29;20069;-85
2021/01/21 08:42:10;;;;;;;2.00;1.50;;;;;;;9.50;66.90;98473.25;4880271;29;20044;-87
2021/01/21 08:44:37;;;;;;;8.80;2.70;;;;;;;9.54;66.71;98473.03;4914704;29;20045;-86
2021/01/21 08:47:03;;;;;;;1.88;1.25;;;;;;;9.55;66.05;98466.81;4896055;29;20041;-85
2021/01/21 08:49:35;;;;;;;1.67;1.33;;;;;;;9.55;66.14;98480.03;4882702;29;20049;-85
2021/01/21 08:52:10;;;;;;;2.28;0.95;;;;;;;9.62;66.02;98489.16;4904237;29;20170;-86
2021/01/21 08:54:52;;;;;;;3.88;1.63;;;;;;;9.67;66.39;98474.66;4900248;29;20036;-86
2021/01/21 08:57:22;;;;;;;4.10;1.98;;;;;;;9.66;66.70;98472.97;4897950;29;20057;-85
2021/01/21 08:59:49;;;;;;;3.67;1.50;;;;;;;9.64;67.22;98466.13;4900342;29;20054;-85
2021/01/21 09:02:42;;;;;;;1.83;1.10;;;;;;;9.66;66.97;98472.97;5068678;23;20028;-85
2021/01/21 09:05:14;;;;;;;3.15;1.33;;;;;;;9.66;66.97;98482.72;4956632;28;20062;-83
2021/01/21 09:07:41;;;;;;;2.67;1.50;;;;;;;9.64;67.53;98474.88;4958788;29;20059;-80
2021/01/21 09:10:13;;;;;;;2.63;1.20;;;;;;;9.70;67.27;98477.09;4955955;29;20100;-83
2021/01/21 09:12:40;;;;;;;3.03;1.42;;;;;;;9.68;67.38;98465.78;4953465;29;20123;-81
2021/01/21 09:15:09;;;;;;;4.07;1.17;;;;;;;9.68;67.41;98472.88;4954257;29;20079;-82
2021/01/21 09:17:38;;;;;;;4.88;1.20;;;;;;;9.71;67.29;98460.28;4947047;29;20059;-82
2021/01/21 09:20:26;;;;;;;1.33;1.00;;;;;;;9.83;66.56;98477.03;4948299;29;20047;-83
2021/01/21 09:23:15;;;;;;;2.25;1.13;;;;;;;9.89;66.68;98471.28;4953212;29;20078;-83
2021/01/21 09:25:43;;;;;;;2.67;1.58;;;;;;;9.91;66.37;98477.31;4954765;29;20117;-82
2021/01/21 09:28:12;;;;;;;2.03;1.05;;;;;;;10.02;66.34;98474.69;4954945;28;20039;-83
2021/01/21 09:30:40;;;;;;;1.50;0.90;;;;;;;10.08;66.97;98479.50;4941678;28;20069;-81
2021/01/21 09:33:07;;;;;;;1.95;1.20;;;;;;;10.15;67.56;98488.69;4939589;28;20058;-83
2021/01/21 09:35:34;;;;;;;2.78;1.20;;;;;;;10.19;67.97;98492.81;4953672;28;20039;-81
2021/01/21 09:38:02;;;;;;;2.47;1.30;;;;;;;10.17;68.31;98493.84;4954693;29;20047;-80
2021/01/21 09:40:34;;;;;;;2.70;0.98;;;;;;;10.23;69.26;98511.09;4958285;28;20050;-81
2021/01/21 09:43:04;;;;;;;2.45;1.00;;;;;;;10.23;68.76;98508.47;4958040;28;20055;-82
2021/01/21 09:45:32;;;;;;;1.90;0.98;;;;;;;10.26;69.41;98514.34;4934280;29;20040;-83
2021/01/21 09:48:01;;;;;;;1.10;0.80;;;;;;;10.24;70.54;98512.75;4958907;28;20111;-80
2021/01/21 09:50:30;;;;;;;2.05;1.15;;;;;;;10.32;72.46;98543.00;4934909;29;20098;-80
2021/01/21 09:52:58;;;;;;;1.10;0.88;;;;;;;10.31;73.08;98545.75;4949733;28;20078;-80
2021/01/21 09:55:26;;;;;;;4.07;0.98;;;;;;;10.29;73.38;98556.44;4952872;28;20080;-79
2021/01/21 09:57:53;;;;;;;2.47;1.17;;;;;;;10.17;74.53;98574.06;4940130;29;20093;-81
2021/01/21 10:00:20;;;;;;;2.55;1.25;;;;;;;10.10;75.55;98586.03;4936736;29;20134;-79
2021/01/21 10:02:46;;;;;;;4.68;1.20;;;;;;;10.00;76.91;98586.81;4935753;29;20055;-81
2021/01/21 10:05:17;;;;;;;3.22;1.38;;;;;;;9.92;77.66;98605.88;4938604;29;20092;-82
2021/01/21 10:07:45;;;;;;;1.27;0.98;;;;;;;9.86;78.59;98630.13;4936657;29;20076;-83
2021/01/21 10:10:11;;;;;;;2.05;1.40;;;;;;;9.77;79.84;98639.56;4956211;29;20070;-82
2021/01/21 10:12:38;;;;;;;7.18;1.70;;;;;;;9.67;81.13;98656.19;4936901;29;20062;-83
2021/01/21 10:15:05;;;;;;;3.95;1.60;;;;;;;9.50;81.89;98655.56;4959001;28;20100;-82
2021/01/21 10:17:33;;;;;;;1.70;1.60;;;;;;;9.37;82.16;98657.38;4955862;28;20070;-83
2021/01/21 10:20:00;;;;;;;5.53;1.40;;;;;;;9.21;82.85;98664.69;4960209;28;20059;-82
2021/01/21 10:22:26;;;;;;;3.03;1.33;;;;;;;9.12;83.00;98678.53;4927222;28;20044;-82
2021/01/21 10:24:56;;;;;;;2.92;1.52;;;;;;;9.06;83.70;98685.06;4956879;28;20050;-83
2021/01/21 10:27:29;;;;;;;2.90;1.48;;;;;;;8.96;83.69;98689.28;4950301;28;20060;-82
2021/01/21 10:32:33;;;;;;;3.78;2.08;;;;;;;8.80;85.37;98688.63;4937030;29;20083;-83
2021/01/21 10:35:02;;;;;;;5.15;2.58;;;;;;;8.81;85.17;98685.03;4924506;29;20035;-83
2021/01/21 10:37:32;;;;;;;5.03;1.98;;;;;;;8.76;85.66;98680.06;4934198;29;20048;-83
2021/01/21 10:39:59;;;;;;;5.55;2.28;;;;;;;8.75;86.08;98690.72;4924814;29;20055;-83
2021/01/21 10:42:28;;;;;;;5.40;2.55;;;;;;;8.73;86.00;98680.25;4925493;29;20056;-83
2021/01/21 10:44:54;;;;;;;4.28;1.98;;;;;;;8.73;86.29;98692.59;4936062;29;20037;-83
2021/01/21 10:47:24;;;;;;;1.83;1.20;;;;;;;8.67;85.79;98688.56;4932824;29;20132;-83
2021/01/21 10:49:51;;;;;;;3.58;1.52;;;;;;;8.59;85.86;98680.31;4926708;29;20111;-82
2021/01/21 10:52:18;;;;;;;3.17;1.00;;;;;;;8.52;85.71;98678.19;4929742;29;20075;-81
2021/01/21 10:54:45;;;;;;;3.65;1.02;;;;;;;8.50;85.94;98680.91;4932203;29;20029;-81
2021/01/21 10:57:13;;;;;;;4.05;1.00;;;;;;;8.56;85.66;98679.69;4933244;29;20099;-81
2021/01/21 10:59:40;;;;;;;2.97;0.95;;;;;;;8.63;84.28;98683.63;4915520;29;20054;-80
2021/01/21 11:02:08;;;;;;;1.63;0.85;;;;;;;8.59;83.95;98690.03;4915645;29;20096;-81
2021/01/21 11:04:35;;;;;;;1.63;0.70;;;;;;;8.49;84.11;98673.13;4931746;29;20036;-83
2021/01/21 11:07:03;;;;;;;2.40;0.98;;;;;;;8.53;83.59;98674.59;4936012;29;20115;-82
2021/01/21 11:09:35;;;;;;;2.17;0.90;;;;;;;8.58;83.77;98654.88;4934095;29;20056;-82
2021/01/21 11:12:05;;;;;;;2.60;0.80;;;;;;;8.68;83.26;98663.03;4934983;29;20076;-83
2021/01/21 11:14:33;;;;;;;2.40;0.80;;;;;;;8.76;82.74;98676.56;4933510;29;20056;-82
2021/01/21 11:17:00;;;;;;;3.88;1.30;;;;;;;8.70;82.37;98672.53;4916433;29;20119;-81
2021/01/21 11:19:34;;;;;;;3.13;1.70;;;;;;;8.69;82.21;98677.91;4930432;29;20079;-81
2021/01/21 11:22:00;;;;;;;1.50;1.00;;;;;;;8.68;82.01;98669.16;4916807;29;20090;-80
2021/01/21 11:24:27;;;;;;;2.13;0.80;;;;;;;8.69;81.83;98676.13;4916727;29;20052;-83
2021/01/21 11:26:54;;;;;;;5.90;1.52;;;;;;;8.70;82.32;98677.81;4934161;29;20112;-80
2021/01/21 11:29:21;;;;;;;4.20;1.13;;;;;;;8.69;81.29;98681.41;4926721;29;20490;-82
2021/01/21 11:31:47;;;;;;;1.95;1.10;;;;;;;8.72;81.97;98697.03;4913072;29;20084;-81
2021/01/21 11:34:15;;;;;;;1.90;0.70;;;;;;;8.71;80.86;98702.41;4907198;29;20048;-81
2021/01/21 11:36:44;;;;;;;3.42;0.70;;;;;;;8.63;80.52;98691.53;4932306;29;20112;-81
2021/01/21 11:39:11;;;;;;;3.28;1.00;;;;;;;8.66;80.59;98700.06;4933723;29;20040;-83
2021/01/21 11:41:40;;;;;;;4.45;1.00;;;;;;;8.71;80.32;98690.06;4925461;29;20115;-82
2021/01/21 11:44:06;;;;;;;3.08;0.90;;;;;;;8.71;80.80;98697.13;4930250;29;20044;-83
2021/01/21 11:46:33;;;;;;;2.50;1.02;;;;;;;8.68;79.97;98702.59;4931043;29;20063;-82
2021/01/21 11:49:00;;;;;;;2.22;0.90;;;;;;;8.61;80.04;98691.63;4912581;29;20147;-81
2021/01/21 11:51:29;;;;;;;2.15;1.10;;;;;;;8.60;79.61;98700.50;4929063;29;20053;-82
2021/01/21 11:53:56;;;;;;;4.95;1.67;;;;;;;8.63;79.30;98705.56;4940538;29;20063;-82
2021/01/21 11:56:22;;;;;;;2.75;1.15;;;;;;;8.63;79.48;98697.66;4929926;29;20036;-81